createdAt,value
2018-11-21T00:02:25.847Z,22.87
2018-11-21T00:04:53.226Z,24.03
2018-11-21T00:07:21.393Z,23.90
2018-11-21T00:09:49.551Z,23.60
2018-11-21T00:12:18.040Z,23.53
2018-11-21T00:14:46.232Z,24.47
2018-11-21T00:17:14.407Z,22.90
2018-11-21T00:19:42.573Z,25.47
2018-11-21T00:22:10.751Z,24.60
2018-11-21T00:24:38.899Z,25.57
2018-11-21T00:27:07.406Z,23.53
2018-11-21T00:29:35.898Z,23.17
2018-11-21T00:32:04.329Z,22.50
2018-11-21T00:34:32.466Z,23.93
2018-11-21T00:37:00.785Z,22.57
2018-11-21T00:39:28.952Z,23.03
2018-11-21T00:41:57.157Z,23.20
2018-11-21T00:44:25.759Z,23.57
2018-11-21T00:46:53.918Z,23.93
2018-11-21T00:49:22.119Z,23.67
2018-11-21T00:51:50.610Z,24.63
2018-11-21T00:54:18.805Z,23.57
2018-11-21T00:56:46.968Z,24.43
2018-11-21T00:59:15.287Z,22.93
2018-11-21T01:01:43.820Z,24.27
2018-11-21T01:04:12.009Z,24.10
2018-11-21T01:06:40.508Z,23.17
2018-11-21T01:09:08.675Z,23.97
2018-11-21T01:11:37.270Z,24.47
2018-11-21T01:14:05.734Z,23.33
2018-11-21T01:16:33.895Z,23.67
2018-11-21T01:19:02.153Z,24.47
2018-11-21T01:21:30.312Z,26.13
2018-11-21T01:23:58.755Z,25.80
2018-11-21T01:26:26.909Z,25.33
2018-11-21T01:28:55.058Z,24.43
2018-11-21T01:31:23.357Z,25.13
2018-11-21T01:33:51.505Z,25.30
2018-11-21T01:36:19.643Z,23.67
2018-11-21T01:38:48.070Z,26.33
2018-11-21T01:41:16.265Z,24.07
2018-11-21T01:43:56.583Z,25.23
2018-11-21T01:46:37.752Z,22.87
2018-11-21T01:49:18.286Z,22.97
2018-11-21T01:51:58.744Z,22.33
2018-11-21T01:54:39.457Z,23.23
2018-11-21T01:57:20.052Z,23.80
2018-11-21T02:00:01.169Z,22.40
2018-11-21T02:02:41.686Z,22.67
2018-11-21T02:05:22.675Z,23.03
2018-11-21T02:08:03.826Z,24.73
2018-11-21T02:10:44.376Z,23.40
2018-11-21T02:13:24.594Z,22.77
2018-11-21T02:16:05.001Z,21.57
2018-11-21T02:18:45.414Z,22.20
2018-11-21T02:21:25.852Z,22.00
2018-11-21T02:24:06.936Z,23.03
2018-11-21T02:26:48.012Z,22.40
2018-11-21T02:29:28.141Z,21.97
2018-11-21T02:32:06.839Z,24.03
2018-11-21T02:34:47.991Z,23.37
2018-11-21T02:37:28.370Z,23.27
2018-11-21T02:40:08.808Z,25.60
2018-11-21T02:42:49.838Z,24.97
2018-11-21T02:45:30.584Z,23.97
2018-11-21T02:48:11.494Z,24.90
2018-11-21T02:50:52.907Z,25.23
2018-11-21T02:53:33.291Z,25.17
2018-11-21T02:56:11.966Z,25.80
2018-11-21T02:58:52.395Z,24.33
2018-11-21T03:01:32.657Z,25.97
2018-11-21T03:04:13.623Z,25.77
2018-11-21T03:06:54.608Z,24.77
2018-11-21T03:09:36.092Z,25.80
2018-11-21T03:12:16.615Z,24.07
2018-11-21T03:14:57.190Z,24.90
2018-11-21T03:17:38.100Z,25.27
2018-11-21T03:20:19.220Z,25.43
2018-11-21T03:23:00.280Z,24.63
2018-11-21T03:25:41.070Z,24.13
2018-11-21T03:28:22.355Z,25.03
2018-11-21T03:31:03.062Z,24.20
2018-11-21T03:33:43.733Z,22.47
2018-11-21T03:36:24.351Z,24.80
2018-11-21T03:39:04.918Z,23.80
2018-11-21T03:41:46.317Z,23.67
2018-11-21T03:44:26.653Z,22.80
2018-11-21T03:47:06.794Z,23.93
2018-11-21T03:49:47.557Z,23.40
2018-11-21T03:52:28.428Z,23.27
2018-11-21T03:55:09.628Z,22.53
2018-11-21T03:57:50.355Z,22.77
2018-11-21T04:00:31.016Z,22.40
2018-11-21T04:03:11.424Z,25.47
2018-11-21T04:05:51.825Z,23.57
2018-11-21T04:08:32.834Z,24.93
2018-11-21T04:11:13.511Z,22.83
2018-11-21T04:13:53.863Z,25.70
2018-11-21T04:16:33.992Z,23.40
2018-11-21T04:19:14.539Z,24.77
2018-11-21T04:21:55.301Z,22.07
2018-11-21T04:24:35.835Z,21.50
2018-11-21T04:27:16.297Z,24.73
2018-11-21T04:29:57.254Z,24.73
2018-11-21T04:32:37.692Z,23.93
2018-11-21T04:35:18.230Z,21.83
2018-11-21T04:37:58.632Z,22.63
2018-11-21T04:40:39.064Z,21.07
2018-11-21T04:43:19.766Z,21.83
2018-11-21T04:46:00.026Z,23.20
2018-11-21T04:48:40.595Z,22.63
2018-11-21T04:51:20.822Z,21.83
2018-11-21T04:54:01.053Z,21.73
2018-11-21T04:56:41.909Z,22.33
2018-11-21T04:59:22.622Z,21.77
2018-11-21T05:02:03.876Z,22.20
2018-11-21T05:04:44.825Z,19.97
2018-11-21T05:07:23.565Z,22.30
2018-11-21T05:10:11.148Z,22.93
2018-11-21T05:12:51.324Z,22.33
2018-11-21T05:15:31.819Z,21.70
2018-11-21T05:18:12.093Z,23.10
2018-11-21T05:20:53.154Z,22.17
2018-11-21T05:23:34.318Z,22.03
2018-11-21T05:26:15.468Z,21.67
2018-11-21T05:28:43.585Z,21.73
2018-11-21T05:31:11.739Z,22.13
2018-11-21T05:33:40.143Z,23.17
2018-11-21T05:36:08.281Z,23.10
2018-11-21T05:38:36.438Z,22.13
2018-11-21T05:41:04.955Z,22.93
2018-11-21T05:43:33.079Z,22.63
2018-11-21T05:46:01.215Z,22.70
2018-11-21T05:48:29.356Z,23.50
2018-11-21T05:50:57.512Z,21.70
2018-11-21T05:53:25.638Z,22.00
2018-11-21T05:55:53.774Z,23.10
2018-11-21T05:58:22.177Z,23.83
2018-11-21T06:00:50.565Z,25.00
2018-11-21T06:03:18.719Z,23.40
2018-11-21T06:05:46.861Z,23.43
2018-11-21T06:08:14.982Z,26.00
2018-11-21T06:10:43.159Z,24.50
2018-11-21T06:13:11.701Z,24.50
2018-11-21T06:15:39.845Z,24.37
2018-11-21T06:18:07.967Z,23.47
2018-11-21T06:20:36.102Z,24.63
2018-11-21T06:23:04.252Z,25.83
2018-11-21T06:25:32.641Z,27.10
2018-11-21T06:28:01.038Z,26.83
2018-11-21T06:30:29.259Z,24.67
2018-11-21T06:32:57.655Z,27.20
2018-11-21T06:35:26.413Z,27.30
2018-11-21T06:37:54.807Z,26.30
2018-11-21T06:40:22.944Z,27.20
2018-11-21T06:42:54.955Z,27.97
2018-11-21T06:45:24.351Z,25.60
2018-11-21T06:47:52.480Z,26.50
2018-11-21T06:50:20.727Z,26.40
2018-11-21T06:52:48.851Z,26.93
2018-11-21T06:55:17.246Z,28.10
2018-11-21T06:57:45.450Z,27.47
2018-11-21T07:00:13.633Z,28.23
2018-11-21T07:02:42.171Z,27.07
2018-11-21T07:05:11.040Z,25.70
2018-11-21T07:07:39.206Z,26.10
2018-11-21T07:10:09.966Z,26.87
2018-11-21T07:12:38.137Z,26.80
2018-11-21T07:15:06.581Z,26.97
2018-11-21T07:17:34.703Z,25.20
2018-11-21T07:20:03.112Z,25.87
2018-11-21T07:22:31.249Z,26.87
2018-11-21T07:24:59.375Z,26.83
2018-11-21T07:27:29.065Z,24.87
2018-11-21T07:29:57.284Z,27.60
2018-11-21T07:32:29.456Z,28.67
2018-11-21T07:34:57.695Z,27.53
2018-11-21T07:37:25.991Z,28.00
2018-11-21T07:39:54.370Z,27.20
2018-11-21T07:42:22.798Z,28.57
2018-11-21T07:44:51.525Z,26.93
2018-11-21T07:47:19.906Z,25.17
2018-11-21T07:49:48.023Z,25.47
2018-11-21T07:52:16.738Z,25.97
2018-11-21T07:54:44.859Z,26.17
2018-11-21T07:57:33.243Z,26.37
2018-11-21T08:00:55.494Z,26.47
2018-11-21T08:03:24.679Z,24.93
2018-11-21T08:05:55.271Z,24.10
2018-11-21T08:08:54.563Z,26.10
2018-11-21T08:11:40.634Z,25.80
2018-11-21T08:14:28.026Z,24.20
2018-11-21T08:17:16.593Z,24.67
2018-11-21T08:20:19.175Z,25.50
2018-11-21T08:23:15.632Z,25.60
2018-11-21T08:25:58.439Z,26.57
2018-11-21T08:28:32.787Z,25.53
2018-11-21T08:31:00.929Z,26.20
2018-11-21T08:33:33.866Z,25.57
2018-11-21T08:35:58.289Z,25.07
2018-11-21T08:38:26.429Z,25.73
2018-11-21T08:40:54.857Z,24.60
2018-11-21T08:43:22.960Z,24.97
2018-11-21T08:45:51.086Z,25.93
2018-11-21T08:48:20.801Z,25.90
2018-11-21T08:50:48.918Z,25.53
2018-11-21T08:53:17.030Z,24.43
2018-11-21T08:55:45.164Z,24.47
2018-11-21T08:58:14.035Z,23.93
2018-11-21T09:00:42.886Z,24.03
2018-11-21T09:03:11.270Z,24.53
2018-11-21T09:05:39.386Z,27.13
2018-11-21T09:08:07.825Z,25.80
2018-11-21T09:13:03.622Z,23.60
2018-11-21T09:15:32.000Z,24.07
2018-11-21T09:18:00.123Z,24.67
2018-11-21T09:20:28.238Z,25.70
2018-11-21T09:22:56.480Z,25.60
2018-11-21T09:25:24.696Z,25.50
2018-11-21T09:27:53.076Z,24.73
2018-11-21T09:30:22.234Z,25.37
2018-11-21T09:32:51.780Z,26.03
2018-11-21T09:35:20.283Z,25.27
2018-11-21T09:37:48.516Z,25.30
2018-11-21T09:40:18.108Z,24.90
2018-11-21T09:42:47.397Z,24.23
2018-11-21T09:45:16.927Z,23.63
2018-11-21T09:47:45.405Z,25.17
2018-11-21T09:50:18.744Z,23.50
2018-11-21T09:52:50.346Z,24.07
2018-11-21T09:55:15.392Z,26.07
2018-11-21T09:57:43.777Z,24.27
2018-11-21T10:00:49.131Z,24.20
2018-11-21T10:03:19.314Z,22.77
2018-11-21T10:05:50.107Z,24.37
2018-11-21T10:08:39.741Z,23.20
2018-11-21T10:11:08.584Z,22.07
2018-11-21T10:13:36.734Z,21.67
2018-11-21T10:16:05.813Z,22.43
2018-11-21T10:18:34.858Z,23.80
2018-11-21T10:21:03.423Z,21.87
2018-11-21T10:23:31.748Z,23.20
2018-11-21T10:26:00.169Z,22.20
2018-11-21T10:28:28.328Z,22.13
2018-11-21T10:30:56.538Z,22.27
2018-11-21T10:33:24.690Z,22.83
2018-11-21T10:35:52.869Z,22.23
2018-11-21T10:38:21.373Z,21.87
2018-11-21T10:40:49.752Z,22.60
2018-11-21T10:43:17.888Z,23.93
2018-11-21T10:45:46.000Z,21.67
2018-11-21T10:48:14.378Z,22.20
2018-11-21T10:50:42.766Z,22.37
2018-11-21T10:53:10.882Z,23.63
2018-11-21T10:55:39.008Z,23.23
2018-11-21T10:58:07.845Z,22.43
2018-11-21T11:00:53.500Z,22.97
2018-11-21T11:03:23.705Z,23.73
2018-11-21T11:06:08.902Z,23.27
2018-11-21T11:09:14.028Z,23.03
2018-11-21T11:12:01.364Z,22.40
2018-11-21T11:14:47.876Z,21.40
2018-11-21T11:17:33.977Z,22.33
2018-11-21T11:20:25.317Z,23.40
2018-11-21T11:23:10.782Z,22.97
2018-11-21T11:25:51.646Z,22.63
2018-11-21T11:28:37.471Z,22.87
2018-11-21T11:31:16.423Z,22.63
2018-11-21T11:34:07.871Z,21.70
2018-11-21T11:36:58.155Z,22.50
2018-11-21T11:39:45.486Z,22.60
2018-11-21T11:42:23.008Z,21.57
2018-11-21T11:45:16.402Z,22.40
2018-11-21T11:48:11.355Z,21.93
2018-11-21T11:50:56.882Z,24.23
2018-11-21T11:53:59.478Z,24.63
2018-11-21T11:56:55.915Z,24.70
2018-11-21T11:59:43.249Z,23.83
2018-11-21T12:02:28.972Z,24.00
2018-11-21T12:05:24.932Z,24.43
2018-11-21T12:08:10.856Z,24.17
2018-11-21T12:11:05.148Z,23.77
2018-11-21T12:13:50.981Z,24.90
2018-11-21T12:16:50.015Z,24.53
2018-11-21T12:19:35.858Z,23.83
2018-11-21T12:22:14.484Z,24.60
2018-11-21T12:25:01.825Z,23.37
2018-11-21T12:27:40.873Z,22.30
2018-11-21T12:30:31.465Z,20.93
2018-11-21T12:33:23.399Z,22.27
2018-11-21T12:36:22.602Z,22.60
2018-11-21T12:39:08.307Z,22.17
2018-11-21T12:41:53.515Z,22.60
2018-11-21T12:44:49.599Z,23.37
2018-11-21T12:47:35.558Z,22.33
2018-11-21T12:50:38.874Z,23.17
2018-11-21T12:53:28.132Z,21.77
2018-11-21T12:56:15.476Z,21.73
2018-11-21T12:59:05.803Z,20.40
2018-11-21T13:01:42.626Z,20.57
2018-11-21T13:04:47.898Z,20.77
2018-11-21T13:07:31.811Z,20.43
2018-11-21T13:10:14.730Z,20.67
2018-11-21T13:13:04.713Z,21.40
2018-11-21T13:15:43.628Z,23.00
2018-11-21T13:18:27.554Z,24.47
2018-11-21T13:21:09.806Z,23.67
2018-11-21T13:23:46.859Z,23.37
2018-11-21T13:26:43.364Z,21.93
2018-11-21T13:29:30.695Z,23.83
2018-11-21T13:32:27.081Z,23.07
2018-11-21T13:35:13.418Z,22.27
2018-11-21T13:38:06.581Z,20.77
2018-11-21T13:40:47.910Z,20.77
2018-11-21T13:43:34.196Z,21.43
2018-11-21T13:46:20.342Z,22.20
2018-11-21T13:49:06.190Z,23.33
2018-11-21T13:51:56.591Z,23.23
2018-11-21T13:54:55.760Z,22.30
2018-11-21T13:57:23.966Z,21.57
2018-11-21T13:59:53.521Z,21.30
2018-11-21T14:02:22.052Z,22.33
2018-11-21T14:04:50.335Z,21.67
2018-11-21T14:07:18.567Z,21.97
2018-11-21T14:09:47.054Z,20.20
2018-11-21T14:12:15.527Z,21.50
2018-11-21T14:14:43.904Z,22.17
2018-11-21T14:17:12.165Z,22.43
2018-11-21T14:19:40.565Z,23.17
2018-11-21T14:22:08.764Z,22.33
2018-11-21T14:24:37.039Z,22.30
2018-11-21T14:27:05.554Z,22.37
2018-11-21T14:29:33.989Z,21.97
2018-11-21T14:32:02.259Z,23.37
2018-11-21T14:34:30.770Z,20.47
2018-11-21T14:36:59.082Z,21.10
2018-11-21T14:39:27.317Z,19.23
2018-11-21T14:41:55.874Z,19.60
2018-11-21T14:44:24.362Z,19.53
2018-11-21T14:46:53.651Z,20.20
2018-11-21T14:49:22.683Z,19.73
2018-11-21T14:51:51.163Z,19.27
2018-11-21T14:54:19.369Z,19.17
2018-11-21T14:56:47.566Z,19.93
2018-11-21T14:59:15.988Z,20.53
2018-11-21T15:01:44.162Z,19.40
2018-11-21T15:04:12.313Z,19.50
2018-11-21T15:06:40.485Z,19.37
2018-11-21T15:09:12.745Z,19.77
2018-11-21T15:11:41.549Z,19.80
2018-11-21T15:14:09.703Z,19.33
2018-11-21T15:16:37.848Z,20.47
2018-11-21T15:19:05.975Z,20.73
2018-11-21T15:21:34.355Z,19.37
2018-11-21T15:24:02.490Z,19.07
2018-11-21T15:26:30.991Z,19.77
2018-11-21T15:28:59.138Z,19.43
2018-11-21T15:31:27.257Z,19.90
2018-11-21T15:33:55.407Z,20.20
2018-11-21T15:36:23.524Z,21.13
2018-11-21T15:38:51.912Z,19.20
2018-11-21T15:41:20.023Z,19.47
2018-11-21T15:43:48.233Z,20.63
2018-11-21T15:46:16.341Z,21.03
2018-11-21T15:48:44.495Z,19.50
2018-11-21T15:51:12.619Z,20.27
2018-11-21T15:53:40.756Z,20.13
2018-11-21T15:56:08.869Z,18.40
2018-11-21T15:58:36.993Z,18.77
2018-11-21T16:01:05.309Z,19.27
2018-11-21T16:03:33.491Z,18.50
2018-11-21T16:06:01.641Z,19.90
2018-11-21T16:08:30.084Z,19.10
2018-11-21T16:10:58.234Z,20.13
2018-11-21T16:13:26.653Z,19.03
2018-11-21T16:15:54.799Z,19.17
2018-11-21T16:18:24.673Z,19.30
2018-11-21T16:20:52.799Z,19.23
2018-11-21T16:23:21.172Z,19.30
2018-11-21T16:25:49.366Z,18.27
2018-11-21T16:28:17.486Z,17.53
2018-11-21T16:30:45.611Z,18.27
2018-11-21T16:33:13.712Z,19.00
2018-11-21T16:35:41.941Z,19.17
2018-11-21T16:38:10.049Z,17.77
2018-11-21T16:40:38.211Z,18.67
2018-11-21T16:43:06.758Z,18.17
2018-11-21T16:45:37.080Z,17.37
2018-11-21T16:48:05.585Z,18.63
2018-11-21T16:50:33.986Z,18.57
2018-11-21T16:53:02.123Z,18.20
2018-11-21T16:55:30.419Z,17.43
2018-11-21T16:57:59.483Z,18.20
2018-11-21T17:00:28.758Z,19.33
2018-11-21T17:02:56.878Z,18.03
2018-11-21T17:05:26.189Z,17.93
2018-11-21T17:07:54.826Z,17.63
2018-11-21T17:10:24.883Z,18.33
2018-11-21T17:12:53.037Z,17.50
2018-11-21T17:15:22.762Z,17.93
2018-11-21T17:17:50.971Z,17.43
2018-11-21T17:20:23.104Z,17.63
2018-11-21T17:22:52.765Z,17.40
2018-11-21T17:25:22.422Z,18.00
2018-11-21T17:27:50.665Z,18.20
2018-11-21T17:30:19.878Z,17.60
2018-11-21T17:32:48.168Z,18.47
2018-11-21T17:35:17.014Z,18.17
2018-11-21T17:37:45.264Z,18.80
2018-11-21T17:40:15.951Z,18.43
2018-11-21T17:42:44.235Z,17.77
2018-11-21T17:45:13.036Z,18.10
2018-11-21T17:47:41.175Z,19.33
2018-11-21T17:50:14.583Z,19.33
2018-11-21T17:52:42.991Z,18.13
2018-11-21T17:55:12.708Z,17.67
2018-11-21T17:57:41.017Z,17.73
2018-11-21T18:00:14.022Z,18.07
2018-11-21T18:02:42.342Z,18.30
2018-11-21T18:05:11.600Z,17.97
2018-11-21T18:07:39.773Z,17.63
2018-11-21T18:10:10.049Z,18.03
2018-11-21T18:12:38.331Z,19.23
2018-11-21T18:15:07.251Z,18.67
2018-11-21T18:17:35.457Z,17.23
2018-11-21T18:20:04.247Z,16.73
2018-11-21T18:22:32.381Z,17.73
2018-11-21T18:25:00.517Z,17.97
2018-11-21T18:27:28.708Z,17.77
2018-11-21T18:29:56.873Z,18.93
2018-11-21T18:32:25.111Z,17.50
2018-11-21T18:34:53.318Z,17.63
2018-11-21T18:37:21.547Z,18.53
2018-11-21T18:39:49.681Z,16.77
2018-11-21T18:42:17.820Z,16.50
2018-11-21T18:44:45.950Z,17.47
2018-11-21T18:47:14.646Z,17.73
2018-11-21T18:49:42.785Z,16.53
2018-11-21T18:52:11.515Z,17.23
2018-11-21T18:54:39.698Z,18.80
2018-11-21T18:57:15.511Z,17.83
2018-11-21T18:59:53.602Z,16.50
2018-11-21T19:02:21.752Z,17.83
2018-11-21T19:04:49.920Z,17.37
2018-11-21T19:07:18.256Z,17.47
2018-11-21T19:09:46.412Z,18.13
2018-11-21T19:12:14.586Z,18.37
2018-11-21T19:14:42.705Z,18.77
2018-11-21T19:17:10.887Z,17.63
2018-11-21T19:19:39.009Z,18.47
2018-11-21T19:22:07.140Z,19.40
2018-11-21T19:24:35.624Z,18.07
2018-11-21T19:27:04.322Z,18.60
2018-11-21T19:29:32.452Z,18.93
2018-11-21T19:32:00.576Z,18.57
2018-11-21T19:34:29.296Z,18.10
2018-11-21T19:36:57.451Z,17.17
2018-11-21T19:39:26.057Z,17.50
2018-11-21T19:41:54.210Z,16.73
2018-11-21T19:44:22.343Z,17.07
2018-11-21T19:46:50.478Z,16.23
2018-11-21T19:49:18.823Z,16.77
2018-11-21T19:51:46.946Z,16.00
2018-11-21T19:54:15.077Z,16.87
2018-11-21T19:56:43.539Z,15.77
2018-11-21T19:59:11.656Z,16.37
2018-11-21T20:01:39.812Z,16.37
2018-11-21T20:04:08.275Z,16.63
2018-11-21T20:06:36.627Z,16.23
2018-11-21T20:09:08.651Z,14.77
2018-11-21T20:11:37.206Z,15.07
2018-11-21T20:14:05.404Z,16.40
2018-11-21T20:16:33.531Z,14.87
2018-11-21T20:19:01.682Z,14.87
2018-11-21T20:21:30.314Z,15.20
2018-11-21T20:23:58.676Z,14.53
2018-11-21T20:26:27.064Z,15.13
2018-11-21T20:28:55.200Z,15.40
2018-11-21T20:31:23.338Z,14.17
2018-11-21T20:33:51.600Z,13.50
2018-11-21T20:36:19.750Z,14.70
2018-11-21T20:38:48.125Z,13.80
2018-11-21T20:41:16.367Z,13.77
2018-11-21T20:43:44.515Z,14.17
2018-11-21T20:46:13.151Z,13.20
2018-11-21T20:48:41.360Z,12.93
2018-11-21T20:51:09.501Z,12.80
2018-11-21T20:53:37.631Z,14.47
2018-11-21T20:56:05.770Z,13.00
2018-11-21T20:58:34.163Z,13.73
2018-11-21T21:01:02.661Z,12.63
2018-11-21T21:03:31.350Z,12.83
2018-11-21T21:05:59.542Z,12.50
2018-11-21T21:08:27.757Z,13.57
2018-11-21T21:10:55.927Z,12.20
2018-11-21T21:13:24.105Z,12.87
2018-11-21T21:15:52.273Z,12.97
2018-11-21T21:18:20.514Z,12.93
2018-11-21T21:20:48.626Z,12.30
2018-11-21T21:23:17.080Z,14.17
2018-11-21T21:25:45.264Z,11.60
2018-11-21T21:28:13.444Z,13.57
2018-11-21T21:30:41.651Z,12.40
2018-11-21T21:33:09.813Z,12.13
2018-11-21T21:35:37.986Z,13.47
2018-11-21T21:38:06.189Z,12.67
2018-11-21T21:40:34.353Z,12.90
